createdAt,value
2018-07-24T00:00:18.308Z,76.10
2018-07-24T00:02:29.184Z,76.20
2018-07-24T00:04:39.121Z,76.10
2018-07-24T00:05:44.194Z,76.10
2018-07-24T00:06:51.085Z,76.20
2018-07-24T00:07:56.590Z,76.10
2018-07-24T00:09:01.782Z,76.20
2018-07-24T00:10:06.721Z,76.40
2018-07-24T00:11:12.815Z,76.50
2018-07-24T00:12:17.866Z,76.50
2018-07-24T00:13:23.804Z,76.70
2018-07-24T00:14:29.717Z,76.70
2018-07-24T00:15:34.559Z,76.60
2018-07-24T00:16:39.681Z,76.70
2018-07-24T00:17:44.808Z,76.80
2018-07-24T00:18:49.635Z,76.80
2018-07-24T00:19:54.493Z,76.80
2018-07-24T00:22:03.627Z,77.10
2018-07-24T00:23:08.625Z,77.20
2018-07-24T00:24:14.813Z,77.30
2018-07-24T00:25:21.881Z,77.30
2018-07-24T00:28:37.656Z,77.30
2018-07-24T00:29:42.436Z,77.50
2018-07-24T00:30:48.695Z,77.50
2018-07-24T00:31:53.621Z,77.40
2018-07-24T00:32:58.591Z,78.10
2018-07-24T00:34:03.568Z,77.30
2018-07-24T00:35:08.635Z,77.40
2018-07-24T00:36:13.362Z,77.40
2018-07-24T00:37:18.769Z,77.50
2018-07-24T00:38:24.024Z,77.50
2018-07-24T00:39:28.608Z,77.40
2018-07-24T00:41:38.308Z,77.60
2018-07-24T00:42:43.288Z,77.40
2018-07-24T00:43:47.854Z,77.50
2018-07-24T00:44:53.605Z,77.50
2018-07-24T00:45:58.854Z,77.40
2018-07-24T00:47:03.622Z,77.50
2018-07-24T00:50:16.428Z,77.60
2018-07-24T00:51:21.639Z,77.60
2018-07-24T00:52:27.003Z,77.70
2018-07-24T00:53:32.169Z,77.70
2018-07-24T00:55:42.226Z,77.60
2018-07-24T00:56:47.914Z,78.10
2018-07-24T00:57:53.169Z,78.10
2018-07-24T00:58:58.513Z,77.90
2018-07-24T01:00:04.620Z,78.00
2018-07-24T01:01:10.827Z,77.90
2018-07-24T01:02:15.786Z,77.60
2018-07-24T01:03:23.413Z,77.70
2018-07-24T01:04:28.540Z,77.70
2018-07-24T01:05:33.872Z,77.50
2018-07-24T01:06:39.100Z,77.50
2018-07-24T01:07:44.300Z,77.50
2018-07-24T01:08:49.195Z,77.40
2018-07-24T01:09:54.942Z,77.30
2018-07-24T01:11:00.206Z,77.30
2018-07-24T01:12:05.453Z,77.30
2018-07-24T01:13:10.894Z,77.60
2018-07-24T01:14:16.263Z,77.30
2018-07-24T01:15:22.227Z,77.20
2018-07-24T01:16:30.871Z,77.30
2018-07-24T01:17:36.436Z,77.30
2018-07-24T01:18:42.019Z,77.30
2018-07-24T01:19:47.590Z,77.50
2018-07-24T01:20:55.910Z,77.70
2018-07-24T01:22:01.589Z,77.70
2018-07-24T01:23:07.416Z,77.60
2018-07-24T01:24:12.798Z,77.80
2018-07-24T01:25:18.574Z,78.00
2018-07-24T01:26:24.495Z,78.00
2018-07-24T01:27:30.312Z,78.00
2018-07-24T01:28:35.390Z,78.20
2018-07-24T01:30:45.620Z,78.20
2018-07-24T01:31:51.159Z,78.40
2018-07-24T01:32:56.904Z,78.50
2018-07-24T01:34:02.443Z,78.40
2018-07-24T01:35:07.690Z,78.20
2018-07-24T01:36:12.711Z,78.30
2018-07-24T01:38:23.344Z,77.90
2018-07-24T01:39:28.453Z,78.30
2018-07-24T01:40:33.694Z,78.30
2018-07-24T01:41:38.983Z,78.00
2018-07-24T01:42:45.199Z,77.90
2018-07-24T01:43:50.719Z,78.10
2018-07-24T01:44:56.595Z,78.10
2018-07-24T01:46:01.523Z,78.30
2018-07-24T01:47:07.104Z,78.30
2018-07-24T01:48:13.814Z,78.40
2018-07-24T01:49:20.132Z,78.40
2018-07-24T01:50:26.079Z,78.90
2018-07-24T01:51:32.070Z,78.40
2018-07-24T01:52:37.567Z,78.60
2018-07-24T01:53:42.605Z,78.50
2018-07-24T01:54:47.456Z,78.70
2018-07-24T01:55:53.846Z,78.80
2018-07-24T01:56:59.142Z,79.00
2018-07-24T01:59:09.551Z,79.30
2018-07-24T02:00:18.807Z,79.50
2018-07-24T02:01:23.905Z,79.70
2018-07-24T02:02:28.933Z,80.00
2018-07-24T02:03:35.098Z,80.00
2018-07-24T02:04:40.472Z,80.10
2018-07-24T02:05:45.824Z,80.40
2018-07-24T02:06:50.927Z,80.20
2018-07-24T02:07:55.847Z,80.30
2018-07-24T02:09:00.632Z,80.40
2018-07-24T02:10:06.475Z,80.40
2018-07-24T02:11:11.607Z,80.40
2018-07-24T02:12:16.866Z,80.50
2018-07-24T02:13:22.570Z,80.70
2018-07-24T02:14:27.707Z,80.70
2018-07-24T02:15:32.934Z,80.90
2018-07-24T02:17:43.799Z,81.20
2018-07-24T02:18:48.677Z,81.20
2018-07-24T02:19:53.699Z,81.20
2018-07-24T02:20:59.222Z,81.20
2018-07-24T02:22:04.345Z,81.30
2018-07-24T02:23:09.396Z,81.20
2018-07-24T02:24:15.198Z,81.20
2018-07-24T02:25:20.520Z,81.20
2018-07-24T02:27:30.922Z,81.40
2018-07-24T02:28:35.956Z,81.40
2018-07-24T02:29:41.409Z,81.30
2018-07-24T02:30:46.388Z,81.00
2018-07-24T02:31:51.706Z,81.70
2018-07-24T02:32:57.240Z,81.50
2018-07-24T02:34:02.366Z,81.60
2018-07-24T02:35:07.553Z,81.70
2018-07-24T02:36:12.825Z,81.80
2018-07-24T02:37:18.341Z,81.80
2018-07-24T02:38:24.395Z,82.00
2018-07-24T02:39:29.802Z,82.00
2018-07-24T02:40:35.227Z,81.90
2018-07-24T02:41:40.128Z,81.50
2018-07-24T02:42:45.487Z,82.00
2018-07-24T02:43:50.391Z,81.80
2018-07-24T02:44:55.580Z,81.80
2018-07-24T02:46:01.354Z,81.90
2018-07-24T02:47:07.467Z,82.00
2018-07-24T02:48:12.536Z,82.10
2018-07-24T02:49:18.838Z,81.80
2018-07-24T02:50:23.779Z,81.80
2018-07-24T02:51:28.735Z,81.90
2018-07-24T02:52:34.155Z,82.00
2018-07-24T02:53:40.196Z,82.70
2018-07-24T02:54:45.823Z,82.00
2018-07-24T02:55:51.081Z,82.00
2018-07-24T02:56:56.419Z,81.90
2018-07-24T02:58:02.507Z,81.90
2018-07-24T02:59:08.671Z,81.90
2018-07-24T03:00:13.820Z,81.80
2018-07-24T03:01:18.805Z,82.00
2018-07-24T03:02:23.926Z,82.00
2018-07-24T03:03:28.996Z,82.10
2018-07-24T03:04:34.261Z,81.70
2018-07-24T03:05:39.606Z,81.70
2018-07-24T03:06:45.021Z,81.20
2018-07-24T03:07:50.283Z,81.60
2018-07-24T03:08:55.380Z,82.00
2018-07-24T03:10:00.868Z,82.10
2018-07-24T03:11:06.447Z,82.20
2018-07-24T03:12:11.406Z,82.20
2018-07-24T03:13:17.091Z,82.10
2018-07-24T03:14:22.467Z,82.00
2018-07-24T03:15:27.706Z,81.80
2018-07-24T03:16:32.568Z,80.80
2018-07-24T03:17:38.165Z,82.00
2018-07-24T03:18:43.596Z,81.70
2018-07-24T03:19:49.472Z,82.00
2018-07-24T03:20:55.111Z,82.10
2018-07-24T03:22:00.586Z,82.00
2018-07-24T03:23:05.717Z,81.80
2018-07-24T03:24:10.667Z,81.90
2018-07-24T03:25:17.318Z,80.40
2018-07-24T03:26:22.432Z,81.80
2018-07-24T03:27:27.799Z,81.80
2018-07-24T03:28:33.008Z,81.90
2018-07-24T03:29:38.608Z,81.90
2018-07-24T03:30:44.067Z,81.80
2018-07-24T03:32:55.588Z,81.70
2018-07-24T03:35:05.148Z,81.90
2018-07-24T03:36:11.737Z,81.80
2018-07-24T03:37:16.643Z,81.80
2018-07-24T03:38:21.935Z,81.80
2018-07-24T03:39:27.432Z,81.90
2018-07-24T03:40:33.187Z,81.90
2018-07-24T03:41:38.355Z,81.80
2018-07-24T03:42:43.895Z,81.80
2018-07-24T03:43:49.756Z,81.80
2018-07-24T03:44:54.921Z,81.80
2018-07-24T03:46:02.586Z,81.70
2018-07-24T03:47:08.118Z,81.60
2018-07-24T03:48:13.028Z,82.30
2018-07-24T03:49:18.032Z,81.60
2018-07-24T03:50:22.897Z,81.50
2018-07-24T03:51:27.935Z,81.40
2018-07-24T03:52:36.092Z,81.30
2018-07-24T03:53:40.980Z,81.30
2018-07-24T03:54:46.658Z,81.30
2018-07-24T03:55:51.686Z,80.60
2018-07-24T03:56:57.199Z,81.30
2018-07-24T03:58:02.359Z,81.30
2018-07-24T03:59:07.388Z,81.20
2018-07-24T04:00:12.462Z,81.30
2018-07-24T04:01:17.934Z,81.50
2018-07-24T04:02:22.910Z,81.30
2018-07-24T04:03:28.566Z,81.30
2018-07-24T04:04:33.621Z,81.50
2018-07-24T04:05:38.604Z,81.50
2018-07-24T04:06:43.637Z,81.50
2018-07-24T04:07:51.963Z,81.50
2018-07-24T04:08:57.167Z,81.50
2018-07-24T04:10:02.429Z,81.50
2018-07-24T04:11:07.453Z,81.60
2018-07-24T04:12:12.894Z,81.70
2018-07-24T04:13:18.527Z,81.80
2018-07-24T04:14:24.418Z,81.90
2018-07-24T04:15:29.368Z,82.00
2018-07-24T04:16:35.306Z,82.00
2018-07-24T04:17:40.481Z,82.10
2018-07-24T04:18:48.651Z,82.10
2018-07-24T04:19:54.134Z,82.10
2018-07-24T04:21:00.027Z,82.00
2018-07-24T04:22:05.073Z,82.00
2018-07-24T04:23:10.254Z,82.00
2018-07-24T04:24:15.368Z,82.10
2018-07-24T04:25:20.436Z,82.30
2018-07-24T04:26:25.683Z,82.20
2018-07-24T04:27:31.182Z,82.10
2018-07-24T04:30:51.986Z,82.10
2018-07-24T04:31:57.627Z,81.80
2018-07-24T04:33:03.040Z,81.70
2018-07-24T04:34:08.416Z,81.80
2018-07-24T04:35:13.656Z,81.80
2018-07-24T04:36:19.151Z,81.50
2018-07-24T04:37:24.109Z,81.40
2018-07-24T04:38:30.480Z,81.40
2018-07-24T04:39:35.635Z,81.40
2018-07-24T04:40:40.975Z,81.40
2018-07-24T04:41:46.010Z,82.00
2018-07-24T04:42:51.105Z,80.60
2018-07-24T04:43:56.212Z,81.20
2018-07-24T04:45:01.140Z,81.20
2018-07-24T04:46:06.432Z,80.90
2018-07-24T04:47:11.468Z,80.80
2018-07-24T04:48:16.531Z,80.80
2018-07-24T04:49:21.915Z,81.10
2018-07-24T04:50:27.216Z,81.10
2018-07-24T04:51:32.132Z,81.30
2018-07-24T04:52:37.006Z,81.00
2018-07-24T04:53:41.912Z,81.00
2018-07-24T04:55:52.275Z,80.90
2018-07-24T04:56:57.512Z,80.90
2018-07-24T04:58:02.975Z,81.10
2018-07-24T04:59:07.969Z,80.70
2018-07-24T05:00:13.312Z,80.50
2018-07-24T05:01:18.261Z,80.40
2018-07-24T05:02:23.421Z,80.30
2018-07-24T05:03:29.090Z,80.60
2018-07-24T05:04:34.218Z,80.60
2018-07-24T05:06:44.314Z,80.60
2018-07-24T05:07:49.239Z,80.60
2018-07-24T05:08:54.297Z,80.70
2018-07-24T05:11:03.860Z,80.80
2018-07-24T05:12:10.037Z,80.90
2018-07-24T05:13:15.454Z,80.90
2018-07-24T05:14:20.492Z,80.90
2018-07-24T05:15:25.709Z,80.80
2018-07-24T05:16:31.624Z,80.80
2018-07-24T05:17:36.536Z,80.80
2018-07-24T05:18:41.728Z,80.90
2018-07-24T05:19:46.786Z,80.80
2018-07-24T05:20:51.652Z,80.90
2018-07-24T05:21:56.672Z,80.90
2018-07-24T05:23:01.541Z,80.60
2018-07-24T05:24:08.714Z,80.60
2018-07-24T05:25:13.726Z,80.70
2018-07-24T05:26:18.761Z,80.00
2018-07-24T05:27:23.749Z,80.40
2018-07-24T05:28:29.707Z,81.20
2018-07-24T05:29:35.186Z,80.60
2018-07-24T05:31:44.967Z,80.90
2018-07-24T05:32:50.009Z,80.70
2018-07-24T05:33:56.154Z,80.80
2018-07-24T05:35:10.985Z,80.80
2018-07-24T05:36:21.403Z,80.70
2018-07-24T05:37:26.517Z,80.70
2018-07-24T05:38:34.032Z,80.80
2018-07-24T05:39:39.558Z,80.60
2018-07-24T05:40:45.393Z,80.70
2018-07-24T05:41:50.501Z,80.40
2018-07-24T05:42:56.209Z,80.40
2018-07-24T05:44:01.758Z,80.40
2018-07-24T05:45:07.571Z,80.20
2018-07-24T05:46:37.388Z,80.30
2018-07-24T05:47:42.863Z,79.80
2018-07-24T05:48:48.661Z,80.00
2018-07-24T05:49:55.108Z,79.60
2018-07-24T05:51:09.510Z,80.80
2018-07-24T05:52:20.614Z,80.60
2018-07-24T05:54:30.122Z,79.80
2018-07-24T05:55:35.152Z,79.60
2018-07-24T05:56:41.134Z,79.40
2018-07-24T05:57:46.150Z,79.60
2018-07-24T05:58:51.680Z,79.60
2018-07-24T05:59:56.619Z,79.70
2018-07-24T06:01:02.100Z,79.70
2018-07-24T06:02:07.201Z,79.40
2018-07-24T06:03:12.101Z,79.00
2018-07-24T06:04:17.218Z,78.70
2018-07-24T06:05:22.157Z,78.80
2018-07-24T06:06:27.037Z,78.70
2018-07-24T06:07:32.131Z,78.50
2018-07-24T06:08:37.849Z,78.40
2018-07-24T06:09:46.847Z,78.30
2018-07-24T06:10:51.900Z,78.60
2018-07-24T06:11:59.211Z,77.80
2018-07-24T06:13:04.188Z,77.60
2018-07-24T06:14:09.194Z,77.30
2018-07-24T06:15:15.138Z,77.30
2018-07-24T06:16:21.780Z,77.20
2018-07-24T06:17:26.739Z,77.40
2018-07-24T06:18:31.914Z,77.70
2018-07-24T06:19:36.817Z,77.60
2018-07-24T06:20:41.835Z,77.60
2018-07-24T06:21:48.302Z,77.70
2018-07-24T06:22:53.621Z,77.30
2018-07-24T06:23:58.559Z,77.00
2018-07-24T06:25:03.811Z,76.80
2018-07-24T06:26:08.615Z,76.60
2018-07-24T06:27:13.465Z,76.60
2018-07-24T06:28:18.299Z,76.40
2018-07-24T06:29:23.628Z,76.30
2018-07-24T06:30:29.166Z,76.20
2018-07-24T06:31:34.110Z,76.10
2018-07-24T06:32:39.163Z,76.10
2018-07-24T06:33:44.562Z,76.20
2018-07-24T06:34:49.615Z,76.20
2018-07-24T06:35:54.578Z,76.20
2018-07-24T06:36:59.428Z,76.00
2018-07-24T06:38:04.528Z,76.10
2018-07-24T06:39:11.921Z,75.90
2018-07-24T06:40:17.080Z,76.10
2018-07-24T06:41:22.077Z,75.90
2018-07-24T06:42:27.077Z,75.70
2018-07-24T06:43:32.050Z,76.20
2018-07-24T06:44:38.112Z,75.80
2018-07-24T06:45:43.051Z,75.50
2018-07-24T06:46:48.040Z,75.30
2018-07-24T06:47:53.203Z,75.30
2018-07-24T06:49:09.364Z,75.00
2018-07-24T06:50:19.348Z,74.90
2018-07-24T06:51:25.883Z,74.80
2018-07-24T06:52:39.066Z,75.20
2018-07-24T06:53:50.389Z,74.50
2018-07-24T06:55:02.289Z,73.90
2018-07-24T06:57:45.207Z,72.80
2018-07-24T06:58:51.097Z,72.80
2018-07-24T06:59:59.770Z,72.50
2018-07-24T07:01:08.643Z,72.30
2018-07-24T07:02:15.339Z,72.60
2018-07-24T07:03:22.508Z,72.20
2018-07-24T07:04:30.184Z,71.40
2018-07-24T07:05:38.085Z,70.60
2018-07-24T07:06:46.684Z,71.50
2018-07-24T07:07:51.731Z,71.50
2018-07-24T07:09:01.861Z,71.50
2018-07-24T07:10:07.194Z,71.50
2018-07-24T07:11:12.269Z,70.70
2018-07-24T07:12:17.490Z,70.40
2018-07-24T07:13:37.801Z,70.80
2018-07-24T07:14:44.217Z,71.00
2018-07-24T07:15:49.228Z,70.80
2018-07-24T07:16:56.279Z,71.00
2018-07-24T07:18:01.531Z,70.60
2018-07-24T07:19:06.589Z,70.30
2018-07-24T07:20:12.124Z,70.00
2018-07-24T07:21:18.851Z,70.00
2018-07-24T07:22:24.196Z,69.70
2018-07-24T07:24:35.207Z,69.70
2018-07-24T07:25:40.298Z,69.50
2018-07-24T07:26:46.230Z,69.10
2018-07-24T07:27:52.536Z,69.50
2018-07-24T07:28:57.559Z,69.30
2018-07-24T07:30:02.536Z,68.00
2018-07-24T07:31:07.712Z,67.10
2018-07-24T07:32:12.846Z,66.90
2018-07-24T07:33:18.362Z,66.40
2018-07-24T07:34:23.511Z,66.30
2018-07-24T07:35:30.470Z,67.50
2018-07-24T07:36:35.412Z,67.20
2018-07-24T07:37:42.234Z,66.40
2018-07-24T07:38:51.346Z,65.50
2018-07-24T07:39:57.455Z,64.80
2018-07-24T07:41:04.790Z,64.60
2018-07-24T07:42:10.678Z,65.50
2018-07-24T07:43:16.088Z,65.50
2018-07-24T07:44:22.237Z,65.60
2018-07-24T07:45:27.153Z,65.60
2018-07-24T07:46:31.992Z,65.20
2018-07-24T07:47:36.665Z,65.80
2018-07-24T07:48:41.306Z,65.30
2018-07-24T07:49:46.809Z,64.80
2018-07-24T07:50:51.738Z,64.50
2018-07-24T07:51:56.544Z,64.60
2018-07-24T07:53:03.552Z,64.50
2018-07-24T07:54:17.477Z,64.60
2018-07-24T07:55:24.164Z,64.50
2018-07-24T07:56:32.245Z,64.10
2018-07-24T07:57:39.545Z,63.50
2018-07-24T07:58:45.588Z,63.30
2018-07-24T07:59:56.451Z,63.10
2018-07-24T08:01:02.701Z,61.50
2018-07-24T08:02:09.423Z,61.30
2018-07-24T08:03:14.791Z,61.90
2018-07-24T08:04:20.783Z,61.90
2018-07-24T08:05:26.730Z,62.00
2018-07-24T08:06:34.261Z,61.90
2018-07-24T08:07:40.148Z,61.70
2018-07-24T08:08:46.422Z,61.60
2018-07-24T08:09:52.790Z,61.30
2018-07-24T08:10:57.596Z,60.60
2018-07-24T08:12:02.446Z,60.60
2018-07-24T08:13:07.530Z,61.00
2018-07-24T08:14:14.234Z,61.10
2018-07-24T08:15:18.823Z,61.00
2018-07-24T08:16:24.143Z,60.90
2018-07-24T08:17:32.775Z,60.60
2018-07-24T08:18:38.617Z,60.20
2018-07-24T08:19:43.312Z,59.70
2018-07-24T08:20:49.898Z,59.90
2018-07-24T08:21:58.226Z,60.10
2018-07-24T08:23:03.879Z,60.00
2018-07-24T08:24:08.908Z,59.20
2018-07-24T08:25:14.278Z,58.80
2018-07-24T08:26:19.529Z,58.40
2018-07-24T08:27:25.175Z,57.60
2018-07-24T08:28:30.235Z,57.50
2018-07-24T08:29:38.152Z,57.80
2018-07-24T08:30:44.303Z,57.80
2018-07-24T08:31:50.386Z,57.70
2018-07-24T08:32:55.524Z,57.50
2018-07-24T08:34:00.782Z,57.70
2018-07-24T08:35:06.098Z,57.80
2018-07-24T08:36:12.528Z,58.00
2018-07-24T08:37:18.144Z,57.50
2018-07-24T08:38:24.437Z,57.20
2018-07-24T08:39:30.922Z,56.50
2018-07-24T08:40:36.648Z,55.60
2018-07-24T08:41:42.211Z,54.40
2018-07-24T08:42:50.613Z,54.30
2018-07-24T08:43:56.558Z,54.70
2018-07-24T08:45:02.787Z,54.20
2018-07-24T08:46:08.083Z,53.70
2018-07-24T08:47:12.642Z,53.20
2018-07-24T08:48:17.301Z,53.30
2018-07-24T08:49:24.033Z,51.40
2018-07-24T08:50:29.352Z,51.20
2018-07-24T08:51:34.951Z,50.80
2018-07-24T08:52:40.127Z,51.60
2018-07-24T08:53:46.096Z,53.10
2018-07-24T08:54:52.545Z,53.80
2018-07-24T08:55:57.963Z,53.10
2018-07-24T08:57:04.476Z,53.80
2018-07-24T08:58:10.219Z,53.30
2018-07-24T08:59:15.241Z,52.70
2018-07-24T09:00:20.362Z,52.10
2018-07-24T09:01:37.134Z,52.20
2018-07-24T09:02:44.360Z,51.90
2018-07-24T09:03:49.884Z,52.50
2018-07-24T09:04:55.756Z,53.10
2018-07-24T09:06:01.948Z,51.80
2018-07-24T09:07:06.500Z,51.70
2018-07-24T09:08:11.240Z,52.80
2018-07-24T09:09:21.761Z,52.80
2018-07-24T09:10:27.224Z,53.50
2018-07-24T09:11:35.631Z,52.00
2018-07-24T09:12:42.462Z,52.90
2018-07-24T09:13:49.344Z,53.40
2018-07-24T09:14:53.960Z,53.10
2018-07-24T09:16:00.432Z,52.70
2018-07-24T09:17:05.985Z,52.70
2018-07-24T09:18:10.691Z,53.40
2018-07-24T09:19:15.387Z,53.50
2018-07-24T09:20:20.418Z,53.50
2018-07-24T09:21:25.004Z,53.70
2018-07-24T09:22:38.927Z,53.60
2018-07-24T09:23:45.766Z,52.90
2018-07-24T09:24:50.881Z,52.50
2018-07-24T09:25:55.868Z,53.10
2018-07-24T09:27:00.496Z,52.20
2018-07-24T09:28:07.868Z,51.50
2018-07-24T09:29:12.889Z,50.60
2018-07-24T09:30:17.485Z,50.40
2018-07-24T09:31:22.869Z,50.60
2018-07-24T09:32:33.162Z,50.30
2018-07-24T09:33:38.241Z,49.60
2018-07-24T09:34:43.069Z,49.20
2018-07-24T09:35:47.628Z,49.20
2018-07-24T09:36:52.412Z,49.80
2018-07-24T09:37:57.957Z,50.00
2018-07-24T09:39:02.476Z,51.00
2018-07-24T09:40:07.587Z,51.50
2018-07-24T09:41:12.299Z,51.20
2018-07-24T09:42:17.013Z,50.90
2018-07-24T09:43:22.254Z,51.10
2018-07-24T09:44:27.244Z,49.90
2018-07-24T09:45:33.793Z,50.10
2018-07-24T09:46:38.316Z,48.80
2018-07-24T09:47:43.045Z,48.60
2018-07-24T09:48:51.746Z,48.60
2018-07-24T09:49:57.200Z,48.30
2018-07-24T09:51:02.210Z,47.90
2018-07-24T09:52:23.272Z,48.20
2018-07-24T09:53:29.440Z,48.30
2018-07-24T09:54:35.134Z,48.90
2018-07-24T09:55:43.216Z,49.20
2018-07-24T09:56:49.245Z,49.30
2018-07-24T09:57:55.664Z,48.30
2018-07-24T09:59:01.344Z,49.10
2018-07-24T10:00:08.285Z,48.90
2018-07-24T10:01:18.773Z,49.70
2018-07-24T10:02:23.739Z,48.20
2018-07-24T10:03:28.818Z,48.00
2018-07-24T10:04:34.656Z,47.50
2018-07-24T10:05:41.085Z,47.80
2018-07-24T10:06:46.296Z,47.60
2018-07-24T10:07:52.701Z,47.30
2018-07-24T10:08:58.747Z,47.00
2018-07-24T10:10:05.402Z,47.00
2018-07-24T10:11:12.233Z,46.30
2018-07-24T10:12:18.092Z,46.20
2018-07-24T10:13:23.557Z,46.90
2018-07-24T10:14:29.037Z,46.90
2018-07-24T10:15:35.019Z,46.70
2018-07-24T10:16:40.312Z,47.80
2018-07-24T10:17:45.243Z,48.60
2018-07-24T10:18:51.691Z,48.50
2018-07-24T10:19:57.568Z,48.00
2018-07-24T10:23:46.683Z,47.20
2018-07-24T10:24:51.887Z,47.10
2018-07-24T10:25:57.360Z,47.00
2018-07-24T10:27:03.484Z,46.10
2018-07-24T10:28:19.223Z,46.40
2018-07-24T10:29:24.781Z,46.90
2018-07-24T10:30:30.100Z,47.70
2018-07-24T10:31:35.210Z,47.40
2018-07-24T10:32:40.662Z,47.30
2018-07-24T10:33:46.013Z,47.10
2018-07-24T10:34:51.112Z,47.60
2018-07-24T10:35:56.022Z,47.10
2018-07-24T10:37:01.345Z,46.60
2018-07-24T10:38:06.697Z,45.10
2018-07-24T10:39:12.756Z,44.50
2018-07-24T10:40:18.187Z,44.40
2018-07-24T10:41:23.382Z,43.90
2018-07-24T10:42:28.808Z,44.30
2018-07-24T10:43:34.416Z,44.20
2018-07-24T10:44:40.677Z,45.10
2018-07-24T10:45:46.270Z,45.10
2018-07-24T10:46:52.429Z,45.30
2018-07-24T10:47:57.825Z,45.30
2018-07-24T10:49:04.109Z,46.10
2018-07-24T10:50:11.287Z,45.50
2018-07-24T10:51:18.485Z,44.40
2018-07-24T10:52:26.196Z,43.90
2018-07-24T10:53:32.404Z,44.10
2018-07-24T10:54:39.192Z,44.60
2018-07-24T10:55:44.991Z,44.40
2018-07-24T10:56:51.543Z,45.30
2018-07-24T10:57:57.078Z,44.50
2018-07-24T10:59:07.076Z,44.00
2018-07-24T11:00:13.548Z,44.80
2018-07-24T11:01:19.026Z,43.20
2018-07-24T11:02:24.256Z,41.90
2018-07-24T11:03:29.525Z,40.30
2018-07-24T11:04:34.743Z,37.40
2018-07-24T11:05:39.773Z,35.10
2018-07-24T11:06:44.722Z,30.20
2018-07-24T11:07:51.126Z,29.00
2018-07-24T11:08:56.311Z,25.70
2018-07-24T11:10:01.336Z,24.40
2018-07-24T11:11:06.347Z,23.20
2018-07-24T11:12:11.494Z,22.10
2018-07-24T11:13:19.184Z,21.60
2018-07-24T11:14:27.617Z,20.80
2018-07-24T11:15:34.661Z,19.80
2018-07-24T11:16:39.736Z,19.60
2018-07-24T11:17:47.218Z,19.30
2018-07-24T11:18:55.296Z,18.60
2018-07-24T11:20:01.817Z,18.40
2018-07-24T11:21:12.083Z,17.50
2018-07-24T11:22:17.417Z,17.40
2018-07-24T11:23:25.147Z,17.10
2018-07-24T11:24:30.229Z,16.70
2018-07-24T11:25:36.706Z,16.30
2018-07-24T11:26:42.226Z,16.30
2018-07-24T11:27:47.676Z,16.40
2018-07-24T11:28:53.781Z,15.10
2018-07-24T11:30:20.972Z,14.60
2018-07-24T11:31:28.639Z,14.80
2018-07-24T11:32:35.684Z,14.20
2018-07-24T11:33:42.912Z,13.70
2018-07-24T11:34:51.245Z,13.50
2018-07-24T11:35:58.334Z,13.10
2018-07-24T11:37:04.883Z,13.20
2018-07-24T11:38:11.592Z,13.30
2018-07-24T11:39:17.643Z,12.90
2018-07-24T11:40:23.106Z,12.80
2018-07-24T11:41:29.561Z,12.80
2018-07-24T11:42:37.264Z,13.50
2018-07-24T11:43:42.143Z,13.40
2018-07-24T11:44:47.234Z,14.00
2018-07-24T11:45:53.278Z,13.90
2018-07-24T11:47:01.036Z,13.70
2018-07-24T11:48:12.206Z,13.20
2018-07-24T11:49:19.815Z,13.50
2018-07-24T11:50:28.183Z,14.00
2018-07-24T11:51:34.728Z,14.00
2018-07-24T11:52:41.212Z,14.70
2018-07-24T11:53:48.344Z,14.90
2018-07-24T11:54:53.711Z,14.80
2018-07-24T11:55:58.948Z,14.20
2018-07-24T11:57:04.197Z,13.90
2018-07-24T11:58:12.125Z,13.90
2018-07-24T11:59:17.137Z,14.00
2018-07-24T12:00:22.092Z,14.20
2018-07-24T12:01:27.666Z,14.90
2018-07-24T12:02:34.202Z,15.20
2018-07-24T12:03:40.434Z,16.10
2018-07-24T12:04:46.813Z,16.80
2018-07-24T12:05:51.828Z,17.50
2018-07-24T12:07:05.896Z,18.30
2018-07-24T12:08:13.077Z,18.60
2018-07-24T12:09:20.083Z,19.60
2018-07-24T12:10:27.869Z,20.30
2018-07-24T12:11:38.064Z,20.80
2018-07-24T12:12:48.445Z,21.20
2018-07-24T12:13:59.733Z,21.90
2018-07-24T12:15:06.327Z,22.10
2018-07-24T12:16:27.211Z,22.60
2018-07-24T12:17:32.406Z,22.80
2018-07-24T12:18:38.134Z,22.90
2018-07-24T12:19:58.336Z,22.90
2018-07-24T12:21:05.076Z,22.90
2018-07-24T12:22:13.363Z,23.70
2018-07-24T12:23:24.419Z,23.70
2018-07-24T12:24:29.348Z,24.60
2018-07-24T12:25:35.332Z,24.50
2018-07-24T12:26:41.158Z,24.30
2018-07-24T12:27:46.259Z,24.70
2018-07-24T12:28:51.149Z,24.70
2018-07-24T12:29:57.165Z,24.20
2018-07-24T12:31:02.391Z,24.30
2018-07-24T12:32:08.092Z,23.50
2018-07-24T12:33:15.166Z,24.00
2018-07-24T12:34:20.116Z,23.60
2018-07-24T12:35:25.130Z,24.10
2018-07-24T12:36:30.040Z,25.00
2018-07-24T12:37:35.298Z,25.40
2018-07-24T12:38:41.021Z,24.60
2018-07-24T12:39:48.452Z,24.70
2018-07-24T12:40:53.369Z,25.30
2018-07-24T12:41:58.537Z,25.20
2018-07-24T12:43:04.643Z,25.40
2018-07-24T12:44:10.624Z,25.40
2018-07-24T12:45:16.487Z,25.00
2018-07-24T12:46:21.343Z,25.30
2018-07-24T12:47:28.974Z,25.10
2018-07-24T12:48:35.264Z,24.90
2018-07-24T12:49:40.960Z,25.10
2018-07-24T12:50:47.562Z,25.40
2018-07-24T12:51:52.839Z,25.50
2018-07-24T12:53:00.568Z,25.50
2018-07-24T12:54:08.096Z,25.40
2018-07-24T12:55:14.101Z,25.60
2018-07-24T12:56:20.956Z,25.60
2018-07-24T12:57:27.845Z,25.40
2018-07-24T12:58:33.067Z,25.30
2018-07-24T12:59:40.314Z,25.40
2018-07-24T13:00:45.619Z,25.70
2018-07-24T13:01:52.983Z,25.70
2018-07-24T13:02:58.228Z,26.20
2018-07-24T13:04:03.277Z,26.20
2018-07-24T13:05:12.826Z,26.20
2018-07-24T13:06:17.877Z,26.00
2018-07-24T13:07:24.747Z,26.00
2018-07-24T13:08:30.425Z,26.20
2018-07-24T13:09:35.505Z,27.30
2018-07-24T13:10:43.262Z,26.40
2018-07-24T13:11:55.215Z,26.40
2018-07-24T13:13:00.985Z,26.10
2018-07-24T13:14:06.787Z,26.30
2018-07-24T13:15:14.224Z,26.30
2018-07-24T13:16:20.125Z,26.80
2018-07-24T13:17:35.586Z,26.40
2018-07-24T13:18:44.015Z,26.70
2018-07-24T13:19:49.869Z,26.90
2018-07-24T13:20:54.994Z,26.90
2018-07-24T13:22:00.555Z,26.80
2018-07-24T13:23:08.299Z,27.00
2018-07-24T13:24:14.480Z,27.30
2018-07-24T13:25:20.357Z,27.30
2018-07-24T13:26:27.736Z,27.10
2018-07-24T13:27:34.222Z,27.40
2018-07-24T13:28:40.203Z,27.10
2018-07-24T13:29:47.152Z,26.70
2018-07-24T13:30:52.452Z,27.10
2018-07-24T13:31:58.905Z,27.20
2018-07-24T13:33:05.207Z,27.10
2018-07-24T13:34:12.331Z,27.30
2018-07-24T13:35:17.708Z,27.40
2018-07-24T13:36:24.085Z,27.30
2018-07-24T13:37:29.623Z,27.10
2018-07-24T13:38:36.209Z,27.00
2018-07-24T13:39:44.756Z,27.10
2018-07-24T13:40:51.217Z,27.00
2018-07-24T13:41:58.610Z,27.00
2018-07-24T13:43:09.151Z,26.80
2018-07-24T13:44:14.690Z,26.80
2018-07-24T13:45:20.081Z,27.10
2018-07-24T13:46:25.018Z,26.90
2018-07-24T13:47:31.172Z,27.40
2018-07-24T13:48:36.640Z,27.50
2018-07-24T13:49:41.596Z,27.90
2018-07-24T13:50:50.668Z,28.30
2018-07-24T13:51:57.302Z,28.30
2018-07-24T13:53:05.495Z,28.00
2018-07-24T13:54:11.650Z,28.00
2018-07-24T13:55:18.103Z,27.80
2018-07-24T13:56:24.084Z,27.90
2018-07-24T13:57:30.490Z,27.80
2018-07-24T13:58:38.798Z,27.70
2018-07-24T13:59:44.549Z,27.80
2018-07-24T14:00:51.729Z,27.80
2018-07-24T14:02:00.105Z,27.90
2018-07-24T14:03:09.311Z,28.00
2018-07-24T14:04:15.719Z,27.90
2018-07-24T14:05:20.928Z,28.00
2018-07-24T14:06:26.227Z,27.80
2018-07-24T14:07:35.971Z,27.90
2018-07-24T14:08:51.933Z,28.00
2018-07-24T14:09:58.577Z,27.80
2018-07-24T14:11:03.592Z,28.00
2018-07-24T14:12:10.218Z,27.70
2018-07-24T14:13:15.721Z,28.00
2018-07-24T14:14:21.467Z,28.90
2018-07-24T14:15:26.872Z,27.90
2018-07-24T14:16:34.228Z,28.20
2018-07-24T14:17:39.213Z,28.20
2018-07-24T14:18:45.370Z,29.00
2018-07-24T14:20:03.096Z,28.90
2018-07-24T14:21:08.455Z,29.10
2018-07-24T14:22:20.437Z,29.20
2018-07-24T14:23:25.686Z,29.30
2018-07-24T14:24:31.362Z,29.40
2018-07-24T14:25:36.633Z,29.40
2018-07-24T14:26:43.117Z,29.70
2018-07-24T14:27:50.247Z,29.80
2018-07-24T14:28:56.352Z,29.70
2018-07-24T14:30:03.005Z,29.80
2018-07-24T14:31:10.130Z,30.00
2018-07-24T14:32:16.085Z,30.80
2018-07-24T14:33:22.891Z,30.40
2018-07-24T14:34:28.224Z,29.50
2018-07-24T14:35:34.226Z,30.00
2018-07-24T14:36:43.187Z,29.90
2018-07-24T14:37:50.766Z,30.00
2018-07-24T14:38:56.247Z,31.00
2018-07-24T14:40:08.090Z,31.30
2018-07-24T14:41:14.650Z,31.40
2018-07-24T14:42:20.257Z,31.40